Time;durP1;ratioP1;P1;durP2;ratioP2;P2;SDS_P1;SDS_P2;PMS_P1;PMS_P2;Temp;Humidity;BMP_temperature;BMP_pressure;BME280_temperature;BME280_humidity;BME280_pressure;Samples;Min_cycle;Max_cycle;Signal;HPM_P1;HPM_P2
2023/09/20 00:02:27;;;;;;;3.85;1.52;;;;;;;15.58;90.46;100315.78;4897485;29;20039;-81
2023/09/20 00:05:32;;;;;;;5.55;1.50;;;;;;;15.54;90.63;100324.88;4895456;29;20048;-81
2023/09/20 00:08:35;;;;;;;6.35;1.75;;;;;;;15.47;90.97;100317.53;4895858;29;20104;-81
2023/09/20 00:11:40;;;;;;;6.35;1.80;;;;;;;15.50;90.91;100319.94;4896666;29;20147;-81
2023/09/20 00:14:44;;;;;;;5.68;1.58;;;;;;;15.51;90.89;100321.66;4874329;29;20107;-81
2023/09/20 00:17:48;;;;;;;4.68;1.42;;;;;;;15.53;90.40;100323.19;4897324;29;20092;-80
2023/09/20 00:20:51;;;;;;;7.60;1.40;;;;;;;15.49;90.49;100327.00;4889083;29;20075;-81
2023/09/20 00:23:56;;;;;;;6.28;1.30;;;;;;;15.38;91.53;100316.47;4914213;29;20074;-81
2023/09/20 00:26:59;;;;;;;8.25;1.60;;;;;;;15.35;91.30;100322.81;4914744;29;20051;-81
2023/09/20 00:30:03;;;;;;;10.07;2.25;;;;;;;15.35;91.19;100314.06;4915342;29;20103;-82
2023/09/20 00:33:07;;;;;;;8.90;1.75;;;;;;;15.30;91.24;100316.19;4915979;29;20043;-81
2023/09/20 00:36:19;;;;;;;4.43;1.15;;;;;;;15.22;91.48;100316.78;4916454;29;20043;-80
2023/09/20 00:39:23;;;;;;;5.63;1.37;;;;;;;15.07;92.34;100316.13;4916437;29;20414;-81
2023/09/20 00:42:28;;;;;;;6.65;1.30;;;;;;;15.16;91.70;100313.78;4904760;29;20517;-82
2023/09/20 00:45:31;;;;;;;2.72;0.95;;;;;;;15.13;92.02;100320.09;4894033;29;20054;-82
2023/09/20 00:48:38;;;;;;;4.95;1.23;;;;;;;15.20;91.68;100307.31;4916363;29;20577;-81
2023/09/20 00:51:44;;;;;;;6.18;1.20;;;;;;;15.13;91.34;100306.94;4904793;29;20055;-82
2023/09/20 00:54:48;;;;;;;4.60;1.67;;;;;;;14.94;92.54;100307.47;4904654;29;20538;-82
2023/09/20 00:57:53;;;;;;;6.35;1.42;;;;;;;14.98;91.83;100310.69;4904824;29;20096;-82
2023/09/20 01:00:57;;;;;;;6.25;1.60;;;;;;;14.91;92.21;100312.94;4904874;29;20054;-82
2023/09/20 01:04:02;;;;;;;6.38;2.10;;;;;;;14.92;92.67;100314.63;4916339;29;20188;-82
2023/09/20 01:07:05;;;;;;;5.20;1.30;;;;;;;14.91;92.30;100312.94;4904548;29;20107;-82
2023/09/20 01:10:09;;;;;;;4.28;1.25;;;;;;;14.98;91.78;100314.16;4891055;29;20522;-82
2023/09/20 01:13:15;;;;;;;3.70;1.42;;;;;;;14.90;91.38;100306.00;4916147;29;20521;-82
2023/09/20 01:16:18;;;;;;;4.57;1.42;;;;;;;14.84;91.72;100302.03;4897026;29;20524;-82
2023/09/20 01:19:22;;;;;;;4.45;1.40;;;;;;;14.86;91.75;100300.09;4919789;29;20418;-82
2023/09/20 01:22:26;;;;;;;7.22;1.80;;;;;;;14.84;91.87;100299.41;4920284;29;20055;-80
2023/09/20 01:25:31;;;;;;;4.18;1.00;;;;;;;14.86;91.45;100307.16;4908131;29;20100;-80
2023/09/20 01:28:35;;;;;;;6.07;1.75;;;;;;;14.71;91.63;100293.38;4919843;29;20530;-80
2023/09/20 01:31:38;;;;;;;3.30;1.40;;;;;;;14.69;91.59;100297.06;4919806;29;20072;-80
2023/09/20 01:34:42;;;;;;;5.88;1.58;;;;;;;14.65;91.81;100296.44;4919803;29;20047;-80
2023/09/20 01:37:45;;;;;;;3.80;1.00;;;;;;;14.63;91.90;100288.63;4919651;29;20042;-80
2023/09/20 01:40:48;;;;;;;8.43;1.30;;;;;;;14.61;91.98;100300.22;4919580;29;20051;-80
2023/09/20 01:43:52;;;;;;;4.90;1.20;;;;;;;14.58;91.82;100301.31;4919467;29;20079;-81
2023/09/20 01:46:55;;;;;;;4.75;1.15;;;;;;;14.57;91.92;100296.13;4895780;29;20048;-82
2023/09/20 01:50:04;;;;;;;5.15;1.70;;;;;;;14.57;91.63;100298.78;4900607;29;20051;-81
2023/09/20 01:53:10;;;;;;;7.88;1.42;;;;;;;14.55;91.75;100291.00;4899773;29;20080;-81
2023/09/20 01:56:13;;;;;;;9.05;1.30;;;;;;;14.58;91.84;100282.88;4889110;29;20055;-82
2023/09/20 01:59:16;;;;;;;6.05;1.08;;;;;;;14.57;91.40;100283.81;4888926;29;20043;-82
2023/09/20 02:02:20;;;;;;;2.83;1.15;;;;;;;14.52;91.62;100270.19;4900312;29;20047;-81
2023/09/20 02:05:26;;;;;;;5.93;1.60;;;;;;;14.52;91.75;100269.34;4888651;29;20043;-81
2023/09/20 02:08:29;;;;;;;7.80;1.63;;;;;;;14.44;91.80;100269.84;4888480;29;20116;-81
2023/09/20 02:11:32;;;;;;;3.00;1.13;;;;;;;14.45;91.72;100266.25;4888509;29;20067;-81
2023/09/20 02:14:35;;;;;;;4.53;1.40;;;;;;;14.46;90.98;100264.50;4888562;29;20423;-81
2023/09/20 02:17:40;;;;;;;6.70;2.08;;;;;;;14.45;91.63;100262.78;4888669;29;20051;-82
2023/09/20 02:20:43;;;;;;;4.60;1.25;;;;;;;14.50;91.31;100266.78;4888483;29;20051;-82
2023/09/20 02:23:47;;;;;;;4.00;1.30;;;;;;;14.47;91.30;100259.09;4900281;29;20455;-82
2023/09/20 02:26:50;;;;;;;6.55;1.10;;;;;;;14.43;91.26;100257.66;4899316;29;20083;-82
2023/09/20 02:29:54;;;;;;;6.32;1.20;;;;;;;14.35;91.50;100262.63;4899941;29;20047;-82
2023/09/20 02:33:00;;;;;;;11.77;1.33;;;;;;;14.37;91.78;100260.72;4899730;29;20169;-82
2023/09/20 02:36:04;;;;;;;6.05;1.33;;;;;;;14.30;92.02;100264.75;4899536;29;20096;-82
2023/09/20 02:39:12;;;;;;;6.88;1.50;;;;;;;14.25;92.25;100265.06;4888254;29;20044;-81
2023/09/20 02:42:17;;;;;;;4.18;1.33;;;;;;;14.25;92.38;100267.69;4888210;29;20056;-80
2023/09/20 02:45:25;;;;;;;7.00;1.50;;;;;;;14.27;92.19;100264.97;4899578;29;20455;-81
2023/09/20 02:48:28;;;;;;;4.55;1.25;;;;;;;14.29;92.90;100268.31;4887864;29;20054;-81
2023/09/20 02:51:31;;;;;;;6.78;1.80;;;;;;;14.34;92.35;100255.69;4888069;29;20103;-81
2023/09/20 02:54:35;;;;;;;5.40;1.88;;;;;;;14.11;93.20;100250.28;4899585;29;20083;-81
2023/09/20 02:57:44;;;;;;;5.07;1.25;;;;;;;14.16;93.70;100250.78;4899484;29;20059;-81
2023/09/20 03:00:50;;;;;;;6.18;1.30;;;;;;;14.23;93.22;100252.97;4899360;29;20104;-81
2023/09/20 03:03:54;;;;;;;6.18;1.45;;;;;;;14.25;93.01;100256.34;4887743;29;20410;-80
2023/09/20 03:06:58;;;;;;;4.85;1.33;;;;;;;14.30;92.89;100255.06;4898420;29;20107;-81
2023/09/20 03:10:05;;;;;;;4.43;1.25;;;;;;;14.30;92.83;100248.97;4887508;29;20533;-82
2023/09/20 03:13:19;;;;;;;3.25;1.35;;;;;;;14.30;93.10;100251.63;4887534;29;20419;-81
2023/09/20 03:16:28;;;;;;;6.10;1.50;;;;;;;14.35;92.67;100241.56;4899047;29;20059;-81
2023/09/20 03:19:32;;;;;;;5.97;1.10;;;;;;;14.28;92.84;100248.25;4887504;29;20522;-81
2023/09/20 03:22:36;;;;;;;9.73;1.30;;;;;;;14.28;93.10;100241.19;4887513;29;20135;-82
2023/09/20 03:25:40;;;;;;;4.47;1.15;;;;;;;14.31;92.92;100240.97;4887189;29;20047;-82
2023/09/20 03:28:56;;;;;;;3.45;1.30;;;;;;;14.25;93.23;100251.91;4902509;29;20462;-81
2023/09/20 03:32:04;;;;;;;3.65;0.98;;;;;;;14.34;93.25;100245.16;4906017;29;20054;-82
2023/09/20 03:35:10;;;;;;;5.47;1.50;;;;;;;14.33;93.45;100240.88;4902956;29;20087;-80
2023/09/20 03:38:15;;;;;;;5.90;1.60;;;;;;;14.35;93.24;100241.56;4904766;29;20538;-75
2023/09/20 03:41:18;;;;;;;6.47;1.35;;;;;;;14.36;92.96;100248.53;4905559;29;20059;-77
2023/09/20 03:44:22;;;;;;;5.90;1.35;;;;;;;14.33;92.74;100243.50;4905700;29;20115;-76
2023/09/20 03:47:28;;;;;;;7.90;1.50;;;;;;;14.35;92.21;100241.56;4905532;29;20079;-78
2023/09/20 03:50:31;;;;;;;6.38;1.00;;;;;;;14.23;93.40;100247.72;4905509;29;20094;-77
2023/09/20 03:53:37;;;;;;;6.97;1.33;;;;;;;14.24;94.04;100250.25;4898236;29;20050;-78
2023/09/20 03:56:41;;;;;;;4.65;1.20;;;;;;;14.24;93.27;100247.63;4905388;29;20051;-76
2023/09/20 03:59:44;;;;;;;6.20;1.45;;;;;;;14.24;93.32;100238.91;4917251;29;20092;-76
2023/09/20 04:02:51;;;;;;;6.95;1.13;;;;;;;14.26;93.45;100236.97;4906228;29;20091;-72
2023/09/20 04:06:03;;;;;;;3.35;1.35;;;;;;;14.23;93.33;100221.41;4906362;29;20051;-75
2023/09/20 04:09:09;;;;;;;3.75;1.10;;;;;;;14.24;93.92;100228.38;4905304;29;20087;-76
2023/09/20 04:12:24;;;;;;;5.47;1.30;;;;;;;14.23;93.63;100226.69;5151456;27;20141;-76
2023/09/20 04:15:53;;;;;;;7.85;1.30;;;;;;;14.27;93.77;100222.91;5150933;27;20038;-84
2023/09/20 04:18:57;;;;;;;3.63;1.20;;;;;;;14.24;93.50;100223.13;5151620;27;20045;-80
2023/09/20 04:22:14;;;;;;;5.95;1.40;;;;;;;14.22;93.64;100219.75;5150635;27;20050;-81
2023/09/20 04:25:26;;;;;;;9.70;2.75;;;;;;;14.25;93.46;100214.28;5150700;27;20075;-82
2023/09/20 04:28:29;;;;;;;10.48;2.75;;;;;;;14.19;93.80;100221.63;5150744;27;20555;-77
2023/09/20 04:31:33;;;;;;;7.00;1.50;;;;;;;14.04;95.80;100221.91;5150466;27;20050;-64
2023/09/20 04:34:37;;;;;;;5.22;1.33;;;;;;;14.11;94.50;100221.38;5150448;27;20470;-74
2023/09/20 04:37:40;;;;;;;3.70;1.60;;;;;;;14.21;94.27;100218.09;5148921;27;20068;-75
2023/09/20 04:40:44;;;;;;;7.38;1.60;;;;;;;14.19;94.15;100220.81;5151187;27;20069;-74
2023/09/20 04:43:50;;;;;;;4.22;1.10;;;;;;;14.22;93.51;100220.59;5151163;27;20459;-74
2023/09/20 04:46:57;;;;;;;5.05;1.58;;;;;;;14.19;93.68;100221.63;5150308;27;20047;-73
2023/09/20 04:50:02;;;;;;;5.80;1.38;;;;;;;14.18;94.18;100216.50;5150284;27;20050;-73
2023/09/20 04:53:06;;;;;;;5.07;1.10;;;;;;;14.20;94.27;100222.50;5150989;27;20076;-73
2023/09/20 04:56:09;;;;;;;3.63;1.20;;;;;;;14.17;93.80;100220.94;5150017;27;20049;-72
2023/09/20 04:59:14;;;;;;;5.38;1.20;;;;;;;14.07;94.31;100227.81;5150042;27;20045;-73
2023/09/20 05:02:17;;;;;;;3.00;1.08;;;;;;;14.10;94.05;100226.72;5149907;27;20099;-73
2023/09/20 05:05:23;;;;;;;4.63;1.10;;;;;;;14.06;94.04;100228.75;5150446;27;20045;-74
2023/09/20 05:08:26;;;;;;;4.63;1.50;;;;;;;14.06;94.07;100228.75;5149738;27;20050;-74
2023/09/20 05:11:30;;;;;;;4.80;1.35;;;;;;;13.97;94.58;100226.75;5148102;27;20540;-73
2023/09/20 05:14:34;;;;;;;3.17;1.00;;;;;;;14.00;94.94;100231.81;5148027;27;20390;-73
2023/09/20 05:17:40;;;;;;;4.18;1.20;;;;;;;13.92;94.70;100227.09;5148982;27;20492;-73
2023/09/20 05:20:47;;;;;;;4.50;1.20;;;;;;;13.99;94.15;100226.66;5147987;27;20527;-75
2023/09/20 05:23:50;;;;;;;5.97;1.23;;;;;;;13.98;94.31;100228.47;5133615;27;20092;-75
2023/09/20 05:26:53;;;;;;;6.32;1.90;;;;;;;14.02;93.93;100223.81;5134759;27;20430;-75
2023/09/20 05:29:57;;;;;;;6.20;2.00;;;;;;;13.99;93.98;100222.25;5133479;27;20574;-75
2023/09/20 05:33:00;;;;;;;5.30;1.10;;;;;;;13.87;94.55;100209.97;5133248;27;20050;-75
2023/09/20 05:36:06;;;;;;;7.95;1.48;;;;;;;13.82;94.92;100212.09;5134235;27;20414;-75
2023/09/20 05:39:12;;;;;;;5.82;1.48;;;;;;;13.88;94.69;100216.91;5133318;27;20046;-75
2023/09/20 05:42:15;;;;;;;11.10;1.45;;;;;;;13.99;94.13;100221.41;5132618;27;20149;-75
2023/09/20 05:45:23;;;;;;;4.10;1.40;;;;;;;14.07;93.28;100211.16;5133383;27;20061;-75
2023/09/20 05:48:26;;;;;;;6.03;1.10;;;;;;;14.02;93.59;100213.31;5133609;27;20096;-75
2023/09/20 05:51:30;;;;;;;9.38;1.33;;;;;;;14.03;94.02;100204.47;5134866;27;20110;-76
2023/09/20 05:54:33;;;;;;;;;;;;;;;14.03;94.35;100207.91;5134817;27;20046;-75
2023/09/20 05:57:36;;;;;;;8.90;1.63;;;;;;;14.04;94.38;100200.88;5133879;27;20255;-75
2023/09/20 06:00:39;;;;;;;4.72;1.27;;;;;;;14.04;94.61;100198.25;5134110;27;20045;-75
2023/09/20 06:03:43;;;;;;;5.63;1.45;;;;;;;14.08;95.03;100203.19;5134459;27;20429;-75
2023/09/20 06:06:47;;;;;;;5.95;1.23;;;;;;;14.05;94.98;100207.81;5134238;27;20103;-75
2023/09/20 06:09:50;;;;;;;6.00;1.38;;;;;;;14.02;95.23;100203.63;5134006;27;20510;-75
2023/09/20 06:12:54;;;;;;;4.95;1.33;;;;;;;14.08;94.84;100197.94;5133949;27;20080;-76
2023/09/20 06:15:57;;;;;;;2.75;1.15;;;;;;;14.13;94.86;100200.22;5133605;27;20185;-75
2023/09/20 06:19:01;;;;;;;8.05;1.95;;;;;;;14.24;94.56;100195.03;5133947;27;20133;-78
2023/09/20 06:22:04;;;;;;;3.50;1.10;;;;;;;14.30;94.50;100191.13;5119679;27;20554;-74
2023/09/20 06:25:08;;;;;;;3.00;1.33;;;;;;;14.30;95.06;100189.31;5133540;27;20058;-73
2023/09/20 06:28:11;;;;;;;5.07;1.35;;;;;;;14.35;94.80;100191.59;5133837;27;20042;-75
2023/09/20 06:31:15;;;;;;;4.05;0.82;;;;;;;14.47;94.63;100198.59;5132259;27;20042;-76
2023/09/20 06:34:19;;;;;;;8.23;1.55;;;;;;;14.54;94.05;100196.38;5131008;27;20084;-77
2023/09/20 06:37:23;;;;;;;5.32;1.27;;;;;;;14.55;93.99;100201.56;5133417;27;20081;-78
2023/09/20 06:40:34;;;;;;;4.68;1.30;;;;;;;14.59;93.71;100200.38;5131858;27;20512;-76
2023/09/20 06:43:37;;;;;;;4.35;1.38;;;;;;;14.61;94.11;100198.47;5129919;27;20061;-77
2023/09/20 06:46:42;;;;;;;3.13;1.40;;;;;;;14.59;94.16;100197.72;5116753;27;20116;-80
2023/09/20 06:49:45;;;;;;;4.97;1.23;;;;;;;14.64;94.32;100200.00;5125260;27;20081;-77
2023/09/20 06:52:48;;;;;;;4.88;1.95;;;;;;;14.57;95.40;100193.53;5119964;27;20038;-77
2023/09/20 06:55:53;;;;;;;3.25;1.50;;;;;;;14.64;95.27;100195.59;5133079;27;20045;-65
2023/09/20 06:58:56;;;;;;;5.35;1.27;;;;;;;14.83;94.92;100186.31;5132082;27;20100;-66
2023/09/20 07:02:00;;;;;;;6.15;1.15;;;;;;;14.74;95.90;100189.63;5127739;27;20081;-65
2023/09/20 07:05:05;;;;;;;4.93;1.65;;;;;;;14.54;97.73;100194.59;5111723;28;20100;-65
2023/09/20 07:08:09;;;;;;;4.28;1.25;;;;;;;14.59;96.58;100191.63;5111932;28;20047;-68
2023/09/20 07:11:12;;;;;;;4.00;1.40;;;;;;;14.67;97.50;100193.69;5113242;27;20057;-65
2023/09/20 07:14:25;;;;;;;5.13;1.52;;;;;;;14.72;97.21;100192.41;5129542;27;20551;-65
2023/09/20 07:17:29;;;;;;;4.15;1.33;;;;;;;14.80;95.78;100191.81;5131373;27;20046;-64
2023/09/20 07:20:32;;;;;;;5.00;1.30;;;;;;;14.81;95.94;100196.13;5132016;27;20062;-65
2023/09/20 07:23:35;;;;;;;9.35;2.08;;;;;;;14.94;96.18;100196.88;5122663;27;20100;-64
2023/09/20 07:26:45;;;;;;;5.78;2.28;;;;;;;14.98;96.55;100198.31;5111878;27;20544;-65
2023/09/20 07:29:49;;;;;;;8.43;3.30;;;;;;;15.23;95.58;100194.66;5110703;28;20050;-65
2023/09/20 07:32:52;;;;;;;33.30;3.65;;;;;;;15.22;96.43;100193.00;5110868;28;20050;-65
2023/09/20 07:36:00;;;;;;;9.20;2.83;;;;;;;15.41;96.16;100192.41;5111269;28;20547;-64
2023/09/20 07:39:05;;;;;;;6.35;3.55;;;;;;;15.76;99.01;100188.81;5111605;28;20513;-64
2023/09/20 07:42:08;;;;;;;51.22;5.95;;;;;;;15.96;99.53;100195.97;5111590;28;20045;-64
2023/09/20 07:45:13;;;;;;;10.70;3.92;;;;;;;16.14;96.92;100179.63;5111422;28;20050;-63
2023/09/20 07:48:17;;;;;;;4.88;2.83;;;;;;;16.11;94.27;100187.78;5111277;28;20046;-63
2023/09/20 07:51:20;;;;;;;9.07;2.67;;;;;;;16.18;95.07;100183.72;5111471;28;20042;-64
2023/09/20 07:54:24;;;;;;;9.65;3.20;;;;;;;16.25;95.79;100190.16;5118420;27;20099;-63
2023/09/20 07:57:28;;;;;;;7.15;2.60;;;;;;;16.62;100.00;100190.59;5121565;27;20096;-64
2023/09/20 08:00:31;;;;;;;6.50;2.13;;;;;;;16.65;95.11;100192.16;5121240;27;20406;-63
2023/09/20 08:03:35;;;;;;;5.32;2.47;;;;;;;16.72;95.23;100188.06;5121922;27;20516;-63
2023/09/20 08:06:40;;;;;;;5.72;2.17;;;;;;;17.02;97.89;100192.59;5122075;27;20443;-64
2023/09/20 08:09:44;;;;;;;7.70;2.63;;;;;;;17.25;94.39;100184.50;5120326;28;20047;-63
2023/09/20 08:12:47;;;;;;;4.80;1.95;;;;;;;17.44;87.37;100182.78;5121112;28;20380;-64
2023/09/20 08:15:51;;;;;;;4.53;2.08;;;;;;;17.59;82.94;100178.00;5121201;28;20042;-64
2023/09/20 08:19:21;;;;;;;6.90;2.10;;;;;;;17.50;80.63;100168.22;5121889;28;20088;-64
2023/09/20 08:22:24;;;;;;;6.25;2.03;;;;;;;17.53;84.21;100162.66;5120082;28;20043;-63
2023/09/20 09:02:35;;;;;;;6.17;2.33;;;;;;;18.25;78.76;100155.44;5114819;28;20604;-73
2023/09/20 09:05:40;;;;;;;4.10;1.75;;;;;;;18.36;77.76;100155.31;5113701;28;20123;-75
2023/09/20 09:08:44;;;;;;;5.82;2.45;;;;;;;18.45;77.13;100149.19;5114986;28;20078;-73
2023/09/20 09:11:47;;;;;;;6.53;1.83;;;;;;;18.66;78.73;100141.06;5112816;28;20051;-74
2023/09/20 09:14:51;;;;;;;5.28;1.67;;;;;;;18.86;76.45;100146.38;5114859;28;20042;-70
2023/09/20 09:17:54;;;;;;;5.60;1.55;;;;;;;18.93;75.69;100145.69;5114428;28;20054;-77
2023/09/20 09:20:57;;;;;;;4.53;1.90;;;;;;;19.18;77.92;100141.56;5114517;28;20138;-77
2023/09/20 09:24:01;;;;;;;4.88;2.03;;;;;;;19.41;77.10;100130.59;5114549;28;20046;-77
2023/09/20 09:27:06;;;;;;;5.30;1.98;;;;;;;19.57;73.69;100133.44;5114394;28;20399;-72
2023/09/20 09:30:14;;;;;;;4.10;1.67;;;;;;;19.80;72.28;100119.78;5114040;28;20086;-71
2023/09/20 09:33:20;;;;;;;8.20;2.10;;;;;;;20.01;71.82;100116.88;5114197;28;20042;-73
2023/09/20 09:36:27;;;;;;;5.65;1.60;;;;;;;19.90;70.03;100110.78;5114466;28;20047;-64
2023/09/20 09:39:33;;;;;;;3.28;1.33;;;;;;;19.77;70.93;100115.63;5113777;28;20057;-64
2023/09/20 09:42:39;;;;;;;5.38;1.52;;;;;;;19.65;72.74;100112.31;5113866;28;20092;-65
2023/09/20 09:45:44;;;;;;;2.50;1.02;;;;;;;19.73;72.92;100108.94;5114613;28;20411;-65
2023/09/20 09:48:48;;;;;;;5.50;1.80;;;;;;;19.77;71.96;100109.47;5114444;28;20062;-65
2023/09/20 09:51:52;;;;;;;5.03;1.70;;;;;;;19.84;71.83;100105.22;5113577;28;20403;-70
2023/09/20 09:54:58;;;;;;;7.40;1.48;;;;;;;19.80;70.83;100104.72;5113973;28;20403;-77
2023/09/20 09:58:04;;;;;;;4.25;1.65;;;;;;;20.01;70.08;100093.81;5113834;28;20050;-77
2023/09/20 10:01:08;;;;;;;4.28;1.35;;;;;;;20.25;69.97;100105.63;5113799;28;20062;-77
2023/09/20 10:04:12;;;;;;;2.83;1.15;;;;;;;20.42;68.46;100099.44;5114008;28;20081;-78
2023/09/20 10:07:18;;;;;;;4.72;1.20;;;;;;;20.47;68.39;100099.84;5113578;28;20050;-78
2023/09/20 10:10:24;;;;;;;5.55;1.42;;;;;;;20.47;68.48;100101.66;5113502;28;20097;-77
2023/09/20 10:13:30;;;;;;;5.07;1.55;;;;;;;20.37;69.15;100093.78;5113543;28;20081;-77
2023/09/20 10:16:35;;;;;;;3.92;1.00;;;;;;;20.28;69.29;100098.19;5113627;28;20051;-77
2023/09/20 10:19:39;;;;;;;3.55;1.20;;;;;;;20.25;69.83;100108.28;5113218;28;20407;-77
2023/09/20 10:22:45;;;;;;;3.17;1.33;;;;;;;20.34;69.71;100110.03;5113100;28;20047;-77
2023/09/20 10:25:50;;;;;;;3.78;1.10;;;;;;;20.32;69.19;100107.50;5113602;28;20116;-77
2023/09/20 10:29:32;;;;;;;3.88;1.40;;;;;;;20.34;69.03;100097.56;5113301;28;20101;-78
2023/09/20 10:32:48;;;;;;;6.47;1.77;;;;;;;20.35;69.06;100099.22;5113477;28;20038;-77
2023/09/20 10:35:51;;;;;;;3.88;1.05;;;;;;;20.49;68.61;100102.34;5113200;28;20452;-77
2023/09/20 10:39:22;;;;;;;6.07;1.55;;;;;;;20.64;68.24;100103.47;5113204;28;20042;-78
2023/09/20 10:42:27;;;;;;;4.68;1.30;;;;;;;20.88;68.15;100100.16;5113340;28;20411;-77
2023/09/20 10:45:32;;;;;;;4.30;1.00;;;;;;;20.91;66.24;100094.53;5112855;28;20043;-77
2023/09/20 10:48:38;;;;;;;5.25;1.50;;;;;;;21.01;66.27;100087.25;5112951;28;20465;-76
2023/09/20 10:51:48;;;;;;;2.65;1.05;;;;;;;21.14;65.87;100085.00;5112674;28;20042;-75
2023/09/20 10:55:14;;;;;;;5.13;1.10;;;;;;;21.14;65.16;100090.31;5112721;28;20065;-74
2023/09/20 10:58:23;;;;;;;3.85;1.10;;;;;;;21.19;65.48;100075.72;5112724;28;20439;-72
2023/09/20 11:01:26;;;;;;;4.45;1.30;;;;;;;21.15;65.57;100075.19;5112491;28;20051;-76
2023/09/20 11:04:32;;;;;;;3.05;0.90;;;;;;;21.33;64.95;100077.78;5112940;28;20050;-77
2023/09/20 11:07:39;;;;;;;3.75;1.30;;;;;;;21.42;64.69;100060.06;5112510;28;20050;-76
2023/09/20 11:10:46;;;;;;;3.25;1.30;;;;;;;21.48;64.73;100057.56;5112528;28;20050;-76
2023/09/20 11:13:50;;;;;;;4.00;1.15;;;;;;;21.57;64.09;100048.63;5113030;27;20099;-76
2023/09/20 11:16:56;;;;;;;2.88;1.20;;;;;;;21.73;64.47;100046.97;5124017;27;20058;-75
2023/09/20 11:20:00;;;;;;;6.80;1.50;;;;;;;21.55;63.42;100045.28;5117697;27;20046;-76
2023/09/20 11:23:04;;;;;;;6.25;1.60;;;;;;;21.60;63.35;100039.47;5123923;27;20078;-75
2023/09/20 11:26:08;;;;;;;3.90;1.30;;;;;;;21.78;62.33;100049.97;5111466;28;20498;-76
2023/09/20 11:29:16;;;;;;;3.17;1.23;;;;;;;21.62;62.62;100049.94;5110844;28;20046;-75
2023/09/20 11:32:22;;;;;;;1.95;0.77;;;;;;;21.78;61.28;100026.84;5115621;27;20506;-75
2023/09/20 11:35:37;;;;;;;5.18;1.20;;;;;;;21.90;60.72;100032.69;5125023;27;20050;-75
2023/09/20 11:38:40;;;;;;;3.63;1.10;;;;;;;22.15;59.67;100030.06;5120911;27;20054;-76
2023/09/20 11:41:45;;;;;;;4.60;1.17;;;;;;;22.23;59.27;100019.41;5112071;28;20121;-75
2023/09/20 11:45:01;;;;;;;2.63;1.00;;;;;;;22.31;58.70;100005.28;5112016;28;20049;-77
2023/09/20 11:48:08;;;;;;;3.15;1.27;;;;;;;22.35;58.66;100004.75;5112364;28;20518;-76
2023/09/20 11:51:13;;;;;;;2.53;1.00;;;;;;;22.41;57.49;99998.75;5112195;28;20184;-76
2023/09/20 11:54:17;;;;;;;4.00;1.20;;;;;;;22.47;58.08;99992.75;5111845;28;20119;-67
2023/09/20 11:57:22;;;;;;;4.22;1.08;;;;;;;22.84;57.14;99998.44;5111495;28;20059;-70
2023/09/20 12:00:27;;;;;;;4.60;1.38;;;;;;;22.83;57.29;99991.47;5111689;28;20046;-68
2023/09/20 12:03:30;;;;;;;3.65;1.10;;;;;;;22.90;55.46;99984.44;5111429;28;20112;-65
2023/09/20 12:06:35;;;;;;;3.42;0.90;;;;;;;22.94;54.34;99980.44;5111641;28;20061;-70
2023/09/20 12:09:39;;;;;;;4.53;0.90;;;;;;;23.12;53.17;99972.19;5111445;28;20090;-70
2023/09/20 12:12:43;;;;;;;4.10;1.15;;;;;;;23.27;52.54;99978.44;5110524;28;20518;-66
2023/09/20 12:15:47;;;;;;;2.80;0.90;;;;;;;22.85;52.12;99960.97;5111731;28;20409;-73
2023/09/20 12:18:59;;;;;;;4.25;1.20;;;;;;;22.99;52.09;99959.44;5111628;28;20150;-75
2023/09/20 12:22:02;;;;;;;3.05;1.13;;;;;;;23.07;52.19;99955.88;5111362;28;20050;-73
2023/09/20 12:25:06;;;;;;;4.78;1.20;;;;;;;23.37;51.49;99949.72;5111405;28;20046;-72
2023/09/20 12:28:11;;;;;;;4.45;1.10;;;;;;;23.52;51.06;99939.09;5111495;28;20089;-71
2023/09/20 12:31:23;;;;;;;4.93;1.20;;;;;;;23.52;50.36;99933.78;5111472;28;20161;-72
2023/09/20 12:34:27;;;;;;;3.00;1.17;;;;;;;23.95;49.46;99941.28;5114637;28;20074;-77
2023/09/20 12:37:33;;;;;;;3.17;1.10;;;;;;;24.63;48.40;99926.88;5116070;28;20065;-71
2023/09/20 12:40:40;;;;;;;2.53;1.13;;;;;;;24.99;47.92;99920.75;5115969;28;20108;-69
2023/09/20 12:43:44;;;;;;;5.47;1.48;;;;;;;24.40;49.15;99920.78;5115274;28;20173;-68
2023/09/20 12:46:48;;;;;;;3.78;1.48;;;;;;;25.11;47.96;99921.06;5115380;28;20042;-69
2023/09/20 12:49:51;;;;;;;4.28;1.40;;;;;;;24.27;49.36;99916.91;5115254;28;20116;-71
2023/09/20 12:52:56;;;;;;;4.60;1.35;;;;;;;24.17;48.45;99913.69;5115412;27;20067;-71
2023/09/20 12:56:00;;;;;;;3.67;1.15;;;;;;;24.23;47.84;99891.56;5119394;27;20046;-71
2023/09/20 12:59:04;;;;;;;4.72;1.70;;;;;;;26.00;45.18;99886.69;5134443;27;20535;-69
2023/09/20 13:02:08;;;;;;;3.75;1.30;;;;;;;26.61;43.39;99873.44;5114929;28;20066;-69
2023/09/20 13:05:13;;;;;;;5.95;1.23;;;;;;;27.07;42.30;99882.66;5114921;28;20073;-73
2023/09/20 13:08:17;;;;;;;3.75;1.38;;;;;;;27.18;39.48;99875.88;5114938;28;20046;-74
2023/09/20 13:11:23;;;;;;;3.05;1.38;;;;;;;27.15;39.02;99874.44;5114674;28;20050;-71
2023/09/20 13:14:28;;;;;;;2.60;1.30;;;;;;;27.69;39.42;99883.34;5114668;28;20092;-72
2023/09/20 13:17:31;;;;;;;3.47;1.58;;;;;;;29.02;36.01;99869.56;5114370;28;20046;-74
2023/09/20 13:20:35;;;;;;;4.32;1.42;;;;;;;30.69;33.92;99864.25;5114821;28;20117;-75
2023/09/20 13:23:40;;;;;;;2.78;1.63;;;;;;;33.99;28.51;99857.94;5124714;27;20410;-79
2023/09/20 13:26:44;;;;;;;2.38;1.20;;;;;;;35.53;26.88;99856.94;5136057;27;20203;-82
2023/09/20 13:29:50;;;;;;;3.35;1.45;;;;;;;35.59;25.95;99850.47;5119591;27;20161;-79
2023/09/20 13:33:45;;;;;;;4.78;1.20;;;;;;;32.53;30.73;99855.19;5126679;27;20054;-75
2023/09/20 13:36:50;;;;;;;3.40;1.50;;;;;;;28.75;35.06;99864.31;5123690;27;20053;-79
2023/09/20 13:39:54;;;;;;;2.65;1.50;;;;;;;31.53;30.59;99843.53;5119668;27;20043;-76
2023/09/20 13:43:01;;;;;;;3.40;1.30;;;;;;;31.22;31.04;99840.03;5113725;28;20046;-79
2023/09/20 13:46:14;;;;;;;4.70;1.73;;;;;;;31.23;31.38;99838.97;5114132;28;20034;-79
2023/09/20 13:49:21;;;;;;;5.18;1.35;;;;;;;30.91;31.78;99837.63;5127929;27;20042;-79
2023/09/20 13:52:26;;;;;;;3.38;1.50;;;;;;;33.28;28.58;99827.03;5131316;27;20046;-79
2023/09/20 13:55:29;;;;;;;3.47;1.20;;;;;;;35.33;26.04;99833.94;5114172;28;20065;-79
2023/09/20 13:58:33;;;;;;;4.28;1.30;;;;;;;34.85;25.71;99824.81;5114227;28;20461;-78
2023/09/20 14:01:39;;;;;;;4.07;2.03;;;;;;;36.33;24.25;99820.38;5114159;28;20077;-79
2023/09/20 14:04:43;;;;;;;3.25;1.30;;;;;;;36.83;23.43;99803.63;5114042;28;20119;-80
2023/09/20 14:07:48;;;;;;;3.42;1.67;;;;;;;37.63;23.05;99809.34;5113250;28;20088;-77
2023/09/20 14:10:51;;;;;;;2.88;1.40;;;;;;;38.65;21.90;99808.13;5113421;28;20050;-76
2023/09/20 14:13:55;;;;;;;4.90;1.50;;;;;;;36.44;22.71;99804.06;5113298;28;20121;-75
2023/09/20 14:16:59;;;;;;;4.93;1.67;;;;;;;36.91;22.11;99813.97;5115200;27;20528;-74
2023/09/20 14:20:09;;;;;;;4.13;1.60;;;;;;;37.56;21.53;99797.88;5113518;28;20120;-75
2023/09/20 14:23:13;;;;;;;3.97;1.40;;;;;;;38.15;21.26;99797.16;5114066;28;20505;-75
2023/09/20 14:26:16;;;;;;;2.90;1.33;;;;;;;38.41;20.90;99794.31;5113636;28;20118;-77
2023/09/20 14:29:19;;;;;;;3.08;1.63;;;;;;;39.48;20.73;99790.78;5129660;27;20046;-77
2023/09/20 14:32:22;;;;;;;3.45;1.48;;;;;;;39.35;20.23;99775.88;5133518;27;20122;-82
2023/09/20 14:35:26;;;;;;;2.53;1.30;;;;;;;38.16;21.08;99782.41;5131778;27;20517;-75
2023/09/20 14:38:31;;;;;;;3.63;1.23;;;;;;;38.58;21.32;99775.66;5124243;27;20551;-79
2023/09/20 14:41:35;;;;;;;2.45;1.33;;;;;;;38.74;21.00;99776.34;5112147;28;20125;-75
2023/09/20 14:44:39;;;;;;;5.53;1.83;;;;;;;40.35;19.79;99767.84;5113324;27;20082;-79
2023/09/20 14:47:44;;;;;;;2.25;1.20;;;;;;;37.34;22.18;99770.94;5112810;28;20125;-79
2023/09/20 14:50:48;;;;;;;2.47;1.30;;;;;;;38.02;22.00;99759.56;5113210;28;20050;-81
2023/09/20 14:53:53;;;;;;;3.47;1.33;;;;;;;38.24;21.81;99746.34;5114690;27;20047;-81
2023/09/20 14:56:56;;;;;;;3.85;1.27;;;;;;;39.06;21.56;99743.84;5133548;27;20100;-81
2023/09/20 15:00:05;;;;;;;3.70;1.52;;;;;;;38.67;22.00;99752.06;5133707;27;20436;-79
2023/09/20 15:03:12;;;;;;;3.13;1.52;;;;;;;35.37;25.52;99744.53;5134050;27;20053;-80